createdAt,value
2019-05-03T00:02:08.539Z,10.90
2019-05-03T00:04:47.583Z,10.90
2019-05-03T00:07:18.866Z,10.90
2019-05-03T00:09:48.829Z,10.90
2019-05-03T00:12:27.909Z,10.90
2019-05-03T00:15:14.454Z,10.90
2019-05-03T00:17:42.914Z,10.80
2019-05-03T00:20:15.677Z,10.80
2019-05-03T00:22:44.247Z,10.80
2019-05-03T00:25:15.701Z,10.90
2019-05-03T00:27:47.310Z,10.90
2019-05-03T00:30:18.105Z,10.90
2019-05-03T00:32:52.429Z,10.90
2019-05-03T00:35:37.479Z,10.90
2019-05-03T00:38:07.633Z,10.90
2019-05-03T00:40:39.096Z,10.90
2019-05-03T00:43:16.698Z,10.90
2019-05-03T00:45:45.162Z,10.80
2019-05-03T00:48:13.543Z,10.80
2019-05-03T00:50:45.106Z,10.80
2019-05-03T00:53:16.548Z,10.80
2019-05-03T00:55:45.300Z,10.80
2019-05-03T00:58:19.694Z,10.70
2019-05-03T01:00:52.438Z,10.70
2019-05-03T01:03:28.730Z,10.70
2019-05-03T01:05:59.861Z,10.80
2019-05-03T01:08:30.062Z,10.70
2019-05-03T01:10:58.505Z,10.70
2019-05-03T01:13:31.910Z,10.70
2019-05-03T01:16:07.170Z,10.70
2019-05-03T01:18:35.632Z,10.80
2019-05-03T01:21:07.902Z,10.70
2019-05-03T01:23:38.658Z,10.70
2019-05-03T01:26:11.795Z,10.70
2019-05-03T01:28:43.164Z,10.80
2019-05-03T01:31:17.804Z,10.90
2019-05-03T01:33:48.987Z,10.90
2019-05-03T01:36:26.089Z,10.80
2019-05-03T01:38:54.533Z,10.80
2019-05-03T01:41:27.751Z,10.70
2019-05-03T01:43:57.837Z,10.70
2019-05-03T01:46:27.699Z,10.60
2019-05-03T01:49:05.182Z,10.50
2019-05-03T01:51:53.829Z,10.40
2019-05-03T01:54:23.825Z,10.30
2019-05-03T01:56:58.700Z,10.20
2019-05-03T01:59:24.130Z,10.20
2019-05-03T02:02:02.150Z,10.10
2019-05-03T02:04:36.257Z,10.10
2019-05-03T02:07:07.856Z,10.10
2019-05-03T02:09:38.980Z,10.00
2019-05-03T02:12:12.627Z,10.00
2019-05-03T02:14:43.529Z,9.90
2019-05-03T02:17:12.416Z,9.90
2019-05-03T02:19:42.193Z,9.80
2019-05-03T02:22:12.911Z,9.70
2019-05-03T02:24:42.195Z,9.50
2019-05-03T02:27:12.749Z,9.30
2019-05-03T02:29:41.834Z,9.20
2019-05-03T02:32:12.945Z,9.10
2019-05-03T02:34:43.554Z,9.00
2019-05-03T02:37:16.464Z,8.90
2019-05-03T02:39:46.509Z,8.80
2019-05-03T02:42:16.158Z,8.70
2019-05-03T02:44:46.175Z,8.60
2019-05-03T02:47:16.933Z,8.60
2019-05-03T02:49:56.173Z,8.50
2019-05-03T02:52:38.232Z,8.50
2019-05-03T02:55:11.417Z,8.60
2019-05-03T02:57:46.244Z,8.60
2019-05-03T03:00:16.321Z,8.60
2019-05-03T03:02:48.510Z,8.60
2019-05-03T03:05:17.646Z,8.50
2019-05-03T03:07:49.463Z,8.40
2019-05-03T03:10:17.920Z,8.40
2019-05-03T03:12:49.418Z,8.40
2019-05-03T03:15:20.804Z,8.30
2019-05-03T03:17:51.932Z,8.20
2019-05-03T03:20:20.386Z,8.10
2019-05-03T03:22:55.604Z,8.00
2019-05-03T03:25:28.849Z,8.00
2019-05-03T03:28:00.653Z,7.90
2019-05-03T03:30:48.597Z,7.80
2019-05-03T03:33:18.101Z,7.60
2019-05-03T03:35:50.421Z,7.50
2019-05-03T03:38:20.582Z,7.40
2019-05-03T03:40:55.538Z,7.30
2019-05-03T03:43:26.437Z,7.30
2019-05-03T03:45:59.790Z,7.20
2019-05-03T03:48:31.343Z,7.10
2019-05-03T03:51:05.148Z,7.00
2019-05-03T03:53:36.057Z,7.00
2019-05-03T03:56:07.780Z,6.90
2019-05-03T03:58:37.981Z,6.90
2019-05-03T04:01:06.575Z,6.80
2019-05-03T04:03:41.370Z,6.90
2019-05-03T04:06:11.458Z,6.80
2019-05-03T04:08:41.111Z,6.80
2019-05-03T04:11:09.790Z,6.70
2019-05-03T04:13:41.214Z,6.80
2019-05-03T04:16:27.397Z,6.80
2019-05-03T04:19:05.827Z,6.70
2019-05-03T04:21:35.864Z,6.70
2019-05-03T04:24:06.124Z,6.70
2019-05-03T04:26:37.468Z,6.70
2019-05-03T04:29:05.993Z,6.80
2019-05-03T04:31:36.838Z,7.00
2019-05-03T04:34:06.704Z,7.30
2019-05-03T04:36:35.832Z,7.60
2019-05-03T04:39:06.677Z,7.90
2019-05-03T04:41:35.707Z,8.10
2019-05-03T04:44:08.641Z,8.30
2019-05-03T04:46:38.963Z,8.40
2019-05-03T04:49:09.184Z,8.60
2019-05-03T04:51:46.242Z,8.60
2019-05-03T04:54:21.413Z,8.60
2019-05-03T04:56:49.850Z,8.60
2019-05-03T04:59:18.271Z,8.70
2019-05-03T05:01:46.686Z,8.70
2019-05-03T05:04:19.955Z,8.70
2019-05-03T05:06:49.378Z,8.80
2019-05-03T05:09:17.780Z,8.90
2019-05-03T05:11:46.214Z,8.90
2019-05-03T05:14:18.181Z,8.90
2019-05-03T05:16:46.832Z,9.00
2019-05-03T05:19:25.296Z,9.10
2019-05-03T05:22:15.512Z,9.20
2019-05-03T05:24:44.952Z,9.20
2019-05-03T05:27:21.137Z,9.10
2019-05-03T05:29:51.196Z,9.10
2019-05-03T05:32:19.715Z,9.20
2019-05-03T05:34:48.159Z,9.30
2019-05-03T05:37:16.548Z,9.50
2019-05-03T05:39:45.044Z,9.60
2019-05-03T05:42:14.902Z,9.60
2019-05-03T05:44:45.410Z,9.80
2019-05-03T05:47:34.538Z,9.80
2019-05-03T05:49:56.747Z,9.90
2019-05-03T05:52:25.127Z,10.10
2019-05-03T05:55:01.455Z,10.20
2019-05-03T05:57:31.517Z,10.20
2019-05-03T06:00:10.821Z,10.30
2019-05-03T06:02:42.403Z,10.40
2019-05-03T06:05:14.788Z,10.50
2019-05-03T06:07:45.207Z,10.50
2019-05-03T06:10:16.726Z,10.70
2019-05-03T06:12:46.870Z,11.00
2019-05-03T06:15:17.112Z,11.90
2019-05-03T06:17:47.234Z,12.80
2019-05-03T06:20:30.096Z,13.90
2019-05-03T06:23:00.215Z,14.90
2019-05-03T06:25:30.527Z,15.10
2019-05-03T06:28:00.762Z,15.20
2019-05-03T06:30:35.096Z,15.80
2019-05-03T06:33:14.395Z,15.80
2019-05-03T06:35:44.732Z,15.50
2019-05-03T06:38:17.971Z,15.20
2019-05-03T06:40:48.912Z,14.80
2019-05-03T06:43:17.334Z,14.00
2019-05-03T06:45:50.635Z,13.60
2019-05-03T06:48:22.334Z,13.40
2019-05-03T06:50:51.620Z,13.10
2019-05-03T06:53:25.476Z,13.10
2019-05-03T06:55:55.420Z,13.10
2019-05-03T06:58:36.455Z,12.80
2019-05-03T07:01:25.323Z,12.60
2019-05-03T07:03:58.531Z,12.60
2019-05-03T07:06:37.411Z,12.60
2019-05-03T07:09:06.254Z,12.90
2019-05-03T07:11:34.891Z,12.90
2019-05-03T07:14:07.379Z,13.00
2019-05-03T07:16:37.629Z,13.20
2019-05-03T07:19:06.122Z,13.30
2019-05-03T07:21:35.401Z,13.40
2019-05-03T07:24:08.786Z,13.40
2019-05-03T07:26:39.828Z,13.30
2019-05-03T07:29:15.239Z,13.00
2019-05-03T07:31:46.760Z,12.70
2019-05-03T07:34:18.216Z,12.30
2019-05-03T07:36:49.669Z,12.10
2019-05-03T07:39:24.548Z,11.80
2019-05-03T07:41:48.762Z,11.70
2019-05-03T07:44:21.864Z,11.70
2019-05-03T07:46:51.924Z,11.50
2019-05-03T07:49:20.606Z,11.70
2019-05-03T07:51:51.689Z,12.00
2019-05-03T07:54:24.810Z,12.10
2019-05-03T07:57:01.134Z,12.30
2019-05-03T07:59:32.627Z,12.50
2019-05-03T08:02:01.157Z,12.60
2019-05-03T08:04:29.867Z,12.90
2019-05-03T08:07:00.584Z,13.30
2019-05-03T08:09:29.723Z,13.80
2019-05-03T08:11:59.504Z,14.50
2019-05-03T08:14:30.830Z,14.90
2019-05-03T08:16:59.289Z,15.10
2019-05-03T08:19:27.809Z,15.20
2019-05-03T08:21:56.757Z,15.40
2019-05-03T08:24:28.606Z,15.00
2019-05-03T08:27:01.756Z,15.40
2019-05-03T08:29:30.298Z,15.30
2019-05-03T08:32:05.907Z,15.80
2019-05-03T08:34:45.366Z,16.60
2019-05-03T08:37:16.090Z,17.40
2019-05-03T08:39:44.872Z,17.60
2019-05-03T08:42:15.796Z,17.40
2019-05-03T08:44:49.790Z,16.90
2019-05-03T08:47:19.913Z,17.40
2019-05-03T08:49:49.935Z,18.70
2019-05-03T08:52:21.298Z,18.80
2019-05-03T08:54:56.720Z,18.90
2019-05-03T08:57:27.061Z,18.50
2019-05-03T08:59:55.804Z,18.50
2019-05-03T09:02:25.834Z,18.60
2019-05-03T09:04:54.825Z,19.20
2019-05-03T09:07:25.295Z,19.20
2019-05-03T09:10:12.608Z,19.40
2019-05-03T09:12:57.174Z,18.80
2019-05-03T09:15:27.734Z,18.10
2019-05-03T09:18:04.638Z,17.20
2019-05-03T09:20:32.756Z,16.20
2019-05-03T09:23:05.704Z,16.00
2019-05-03T09:25:37.007Z,16.50
2019-05-03T09:28:08.579Z,17.90
2019-05-03T09:30:38.171Z,18.00
2019-05-03T09:33:09.022Z,17.70
2019-05-03T09:35:41.664Z,17.70
2019-05-03T09:38:15.021Z,18.40
2019-05-03T09:40:45.421Z,18.90
2019-05-03T09:43:16.938Z,18.30
2019-05-03T09:45:54.795Z,18.50
2019-05-03T09:48:25.429Z,18.70
2019-05-03T09:50:55.687Z,18.00
2019-05-03T09:53:40.767Z,17.60
2019-05-03T09:56:12.531Z,16.90
2019-05-03T09:58:42.743Z,16.60
2019-05-03T10:01:11.336Z,17.20
2019-05-03T10:03:45.132Z,18.00
2019-05-03T10:06:20.579Z,18.60
2019-05-03T10:08:49.217Z,19.40
2019-05-03T10:11:17.924Z,20.20
2019-05-03T10:13:49.594Z,20.00
2019-05-03T10:16:20.067Z,19.70
2019-05-03T10:18:48.733Z,19.50
2019-05-03T10:21:22.116Z,19.20
2019-05-03T10:23:55.160Z,18.90
2019-05-03T10:26:27.872Z,18.30
2019-05-03T10:28:56.438Z,17.50
2019-05-03T10:31:26.901Z,17.10
2019-05-03T10:33:56.967Z,16.60
2019-05-03T10:36:28.105Z,16.30
2019-05-03T10:38:56.845Z,16.40
2019-05-03T10:41:25.362Z,16.70
2019-05-03T10:43:56.689Z,16.80
2019-05-03T10:46:29.774Z,17.80
2019-05-03T10:48:58.570Z,19.00
2019-05-03T10:51:31.432Z,20.00
2019-05-03T10:54:05.237Z,20.10
2019-05-03T10:56:55.849Z,19.70
2019-05-03T10:59:31.545Z,18.60
2019-05-03T11:02:04.402Z,17.40
2019-05-03T11:04:46.146Z,16.90
2019-05-03T11:07:14.931Z,16.40
2019-05-03T11:09:49.855Z,15.90
2019-05-03T11:12:14.846Z,15.80
2019-05-03T11:14:45.546Z,15.70
2019-05-03T11:17:15.001Z,15.90
2019-05-03T11:19:45.270Z,15.90
2019-05-03T11:22:16.298Z,16.20
2019-05-03T11:24:45.355Z,16.40
2019-05-03T11:27:25.449Z,16.30
2019-05-03T11:29:59.161Z,16.80
2019-05-03T11:32:28.657Z,17.30
2019-05-03T11:35:07.377Z,17.10
2019-05-03T11:37:45.248Z,16.50
2019-05-03T11:40:15.542Z,16.00
2019-05-03T11:42:46.579Z,16.10
2019-05-03T11:45:15.927Z,16.50
2019-05-03T11:47:47.306Z,16.90
2019-05-03T11:50:18.709Z,16.70
2019-05-03T11:52:56.910Z,16.70
2019-05-03T11:55:28.467Z,17.00
2019-05-03T11:57:56.950Z,17.00
2019-05-03T12:00:32.714Z,16.90
2019-05-03T12:03:04.822Z,16.80
2019-05-03T12:05:35.235Z,16.40
2019-05-03T12:08:05.460Z,16.40
2019-05-03T12:10:50.140Z,16.20
2019-05-03T12:13:08.506Z,16.10
2019-05-03T12:15:44.588Z,16.00
2019-05-03T12:18:17.084Z,16.10
2019-05-03T12:20:47.925Z,16.10
2019-05-03T12:23:21.275Z,16.10
2019-05-03T12:25:53.731Z,16.10
2019-05-03T12:28:25.663Z,16.60
2019-05-03T12:30:54.885Z,16.80
2019-05-03T12:33:26.114Z,17.50
2019-05-03T12:35:56.589Z,18.10
2019-05-03T12:38:25.649Z,18.80
2019-05-03T12:40:54.813Z,19.20
2019-05-03T12:43:25.535Z,19.00
2019-05-03T12:45:53.612Z,18.20
2019-05-03T12:48:24.621Z,17.20
2019-05-03T12:50:56.986Z,17.00
2019-05-03T12:53:29.330Z,17.30
2019-05-03T12:55:58.783Z,17.90
2019-05-03T12:58:45.766Z,18.00
2019-05-03T13:01:16.048Z,18.00
2019-05-03T13:03:49.170Z,17.70
2019-05-03T13:06:20.533Z,17.90
2019-05-03T13:08:48.953Z,18.30
2019-05-03T13:11:20.596Z,18.20
2019-05-03T13:13:49.047Z,17.80
2019-05-03T13:16:20.030Z,17.60
2019-05-03T13:18:51.347Z,18.40
2019-05-03T13:21:25.101Z,19.10
2019-05-03T13:23:54.819Z,19.00
2019-05-03T13:26:25.509Z,18.90
2019-05-03T13:28:55.377Z,18.90
2019-05-03T13:31:25.087Z,19.10
2019-05-03T13:33:54.904Z,18.30
2019-05-03T13:36:25.320Z,18.10
2019-05-03T13:38:55.905Z,18.20
2019-05-03T13:41:25.014Z,17.80
2019-05-03T13:43:54.885Z,17.10
2019-05-03T13:46:24.906Z,16.20
2019-05-03T13:48:55.768Z,15.80
2019-05-03T13:51:28.828Z,15.70
2019-05-03T13:54:00.032Z,15.80
2019-05-03T13:56:31.117Z,16.60
2019-05-03T13:58:59.577Z,17.60
2019-05-03T14:01:29.339Z,18.00
2019-05-03T14:04:00.592Z,17.30
2019-05-03T14:06:29.043Z,17.40
2019-05-03T14:08:59.106Z,18.20
2019-05-03T14:11:27.543Z,19.10
2019-05-03T14:13:59.913Z,19.60
2019-05-03T14:16:31.131Z,19.90
2019-05-03T14:19:01.335Z,20.20
2019-05-03T14:21:37.689Z,20.30
2019-05-03T14:24:11.569Z,20.00
2019-05-03T14:26:46.534Z,20.00
2019-05-03T14:29:15.363Z,20.20
2019-05-03T14:31:49.505Z,20.50
2019-05-03T14:34:17.915Z,19.40
2019-05-03T14:36:48.789Z,18.10
2019-05-03T14:39:17.452Z,18.10
2019-05-03T14:41:48.773Z,19.10
2019-05-03T14:44:17.993Z,19.90
2019-05-03T14:46:47.319Z,21.00
2019-05-03T14:49:19.020Z,21.70
2019-05-03T14:51:50.541Z,21.70
2019-05-03T14:54:20.998Z,22.10
2019-05-03T14:57:07.260Z,22.40
2019-05-03T14:59:54.692Z,22.10
2019-05-03T15:02:40.081Z,21.60
2019-05-03T15:04:58.693Z,21.90
2019-05-03T15:07:27.121Z,21.20
2019-05-03T15:09:55.580Z,20.60
2019-05-03T15:12:25.211Z,20.40
2019-05-03T15:14:55.947Z,20.30
2019-05-03T15:17:28.908Z,20.30
2019-05-03T15:19:56.786Z,20.00
2019-05-03T15:22:25.471Z,19.10
2019-05-03T15:24:54.589Z,18.10
2019-05-03T15:27:24.853Z,18.10
2019-05-03T15:29:55.535Z,18.90
2019-05-03T15:32:27.158Z,19.80
2019-05-03T15:34:58.640Z,19.90
2019-05-03T15:37:30.432Z,20.00
2019-05-03T15:40:01.658Z,20.40
2019-05-03T15:42:31.928Z,20.40
2019-05-03T15:45:09.410Z,19.00
2019-05-03T15:47:39.149Z,17.80
2019-05-03T15:50:08.493Z,16.60
2019-05-03T15:52:37.553Z,16.00
2019-05-03T15:55:08.698Z,15.70
2019-05-03T15:57:39.042Z,15.90
2019-05-03T16:00:10.562Z,16.60
2019-05-03T16:02:41.930Z,17.70
2019-05-03T16:05:11.746Z,18.50
2019-05-03T16:07:41.827Z,18.10
2019-05-03T16:10:10.920Z,17.40
2019-05-03T16:12:45.251Z,17.50
2019-05-03T16:15:14.433Z,17.70
2019-05-03T16:17:45.863Z,17.50
2019-05-03T16:20:15.776Z,17.30
2019-05-03T16:22:46.399Z,17.70
2019-05-03T16:25:15.961Z,18.60
2019-05-03T16:27:55.380Z,19.30
2019-05-03T16:30:26.067Z,19.10
2019-05-03T16:32:58.808Z,18.70
2019-05-03T16:35:30.729Z,18.50
2019-05-03T16:38:01.001Z,18.00
2019-05-03T16:40:29.436Z,17.20
2019-05-03T16:42:57.857Z,16.50
2019-05-03T16:45:28.740Z,16.10
2019-05-03T16:47:57.279Z,15.70
2019-05-03T16:50:30.262Z,15.40
2019-05-03T16:53:05.437Z,15.10
2019-05-03T16:55:32.278Z,15.10
2019-05-03T16:58:01.088Z,15.10
2019-05-03T17:00:30.111Z,15.00
2019-05-03T17:03:10.432Z,14.90
2019-05-03T17:05:49.676Z,14.90
2019-05-03T17:08:30.576Z,14.90
2019-05-03T17:11:05.520Z,14.90
2019-05-03T17:13:34.636Z,14.90
2019-05-03T17:16:05.116Z,14.90
2019-05-03T17:18:39.625Z,14.80
2019-05-03T17:21:08.007Z,14.60
2019-05-03T17:23:39.389Z,14.30
2019-05-03T17:26:07.882Z,14.10
2019-05-03T17:28:39.663Z,13.80
2019-05-03T17:31:11.118Z,13.70
2019-05-03T17:33:50.610Z,13.50
2019-05-03T17:36:12.610Z,13.20
2019-05-03T17:38:44.320Z,13.10
2019-05-03T17:41:17.573Z,13.00
2019-05-03T17:43:50.586Z,12.80
2019-05-03T17:46:18.988Z,12.80
2019-05-03T17:48:47.430Z,12.80
2019-05-03T17:51:35.167Z,12.80
2019-05-03T17:54:05.635Z,12.70
2019-05-03T17:56:35.673Z,12.70
2019-05-03T17:59:08.656Z,12.60
2019-05-03T18:01:55.451Z,12.50
2019-05-03T18:04:26.451Z,12.40
2019-05-03T18:06:56.486Z,12.40
2019-05-03T18:09:29.519Z,12.30
2019-05-03T18:11:59.690Z,12.20
2019-05-03T18:14:31.353Z,12.10
2019-05-03T18:16:59.793Z,12.10
2019-05-03T18:19:35.843Z,12.00
2019-05-03T18:22:06.819Z,12.00
2019-05-03T18:24:39.714Z,11.90
2019-05-03T18:27:08.279Z,11.80
2019-05-03T18:29:36.684Z,11.80
2019-05-03T18:32:06.801Z,11.70
2019-05-03T18:34:35.519Z,11.70
2019-05-03T18:37:07.131Z,11.60
2019-05-03T18:39:35.893Z,11.50
2019-05-03T18:42:07.553Z,11.40
2019-05-03T18:44:37.786Z,11.30
2019-05-03T18:47:07.858Z,11.30
2019-05-03T18:49:44.758Z,11.20
2019-05-03T18:52:19.637Z,11.10
2019-05-03T18:54:49.757Z,11.10
2019-05-03T18:57:18.587Z,11.00
2019-05-03T18:59:50.551Z,10.90
2019-05-03T19:02:22.035Z,10.90
2019-05-03T19:04:54.442Z,10.90
2019-05-03T19:07:40.705Z,10.80
2019-05-03T19:10:17.918Z,10.70
2019-05-03T19:12:48.213Z,10.50
2019-05-03T19:15:17.050Z,10.30
2019-05-03T19:17:47.765Z,10.10
2019-05-03T19:20:20.844Z,10.00
2019-05-03T19:22:52.033Z,10.00
2019-05-03T19:25:22.499Z,9.80
2019-05-03T19:27:56.329Z,9.80
2019-05-03T19:30:24.745Z,9.80
2019-05-03T19:32:59.942Z,9.70
2019-05-03T19:35:31.031Z,9.60
2019-05-03T19:38:01.105Z,9.60
2019-05-03T19:40:29.554Z,9.80
2019-05-03T19:42:57.974Z,10.00
2019-05-03T19:45:27.578Z,10.10
2019-05-03T19:47:57.512Z,10.10
2019-05-03T19:50:29.018Z,10.00
2019-05-03T19:52:59.085Z,10.00
2019-05-03T19:55:28.749Z,10.10
2019-05-03T19:57:57.200Z,10.00
2019-05-03T20:00:27.274Z,9.90
2019-05-03T20:03:00.105Z,9.90
2019-05-03T20:05:36.360Z,9.90
2019-05-03T20:08:09.375Z,9.80
2019-05-03T20:10:40.658Z,9.70
2019-05-03T20:13:09.320Z,9.50
2019-05-03T20:15:40.090Z,9.40
2019-05-03T20:18:08.979Z,9.30
2019-05-03T20:20:40.134Z,9.30
2019-05-03T20:23:08.644Z,9.30
2019-05-03T20:25:37.048Z,9.30
2019-05-03T20:28:05.663Z,9.20
2019-05-03T20:30:34.940Z,9.10
2019-05-03T20:33:05.397Z,9.20
2019-05-03T20:35:45.181Z,9.20
2019-05-03T20:38:11.670Z,9.20
2019-05-03T20:40:40.101Z,9.20
2019-05-03T20:43:22.106Z,9.20
2019-05-03T20:45:52.190Z,9.20
2019-05-03T20:48:22.473Z,9.10
2019-05-03T20:50:50.889Z,9.10
2019-05-03T20:53:22.256Z,9.10
2019-05-03T20:55:54.601Z,9.10
2019-05-03T20:58:25.096Z,9.00
2019-05-03T21:00:58.077Z,9.00
2019-05-03T21:03:26.607Z,9.00
2019-05-03T21:05:55.327Z,9.10
2019-05-03T21:08:34.494Z,9.10
2019-05-03T21:11:10.591Z,9.10
2019-05-03T21:13:42.496Z,9.00
2019-05-03T21:16:12.396Z,8.90
2019-05-03T21:18:42.419Z,8.90
2019-05-03T21:21:12.600Z,8.80
2019-05-03T21:23:44.841Z,8.70
2019-05-03T21:26:16.602Z,8.50
2019-05-03T21:28:45.269Z,8.40
2019-05-03T21:31:15.669Z,8.30
2019-05-03T21:33:44.500Z,8.20
2019-05-03T21:36:17.925Z,8.10
2019-05-03T21:38:46.401Z,8.00
2019-05-03T21:41:17.872Z,7.80
2019-05-03T21:43:46.344Z,7.70
2019-05-03T21:46:19.260Z,7.70
2019-05-03T21:48:52.471Z,7.70
2019-05-03T21:51:20.929Z,7.70
2019-05-03T21:53:52.373Z,7.70
2019-05-03T21:56:25.002Z,7.80
2019-05-03T21:58:56.565Z,7.80
2019-05-03T22:01:25.961Z,7.90
2019-05-03T22:03:57.783Z,8.00
2019-05-03T22:06:26.487Z,8.10
2019-05-03T22:08:55.514Z,8.20
2019-05-03T22:11:26.051Z,8.20
2019-05-03T22:13:58.855Z,8.20
2019-05-03T22:16:28.915Z,8.20
2019-05-03T22:18:57.329Z,8.20
2019-05-03T22:21:27.591Z,8.10
2019-05-03T22:24:16.961Z,8.10
2019-05-03T22:26:52.995Z,8.00
2019-05-03T22:29:27.128Z,8.10
2019-05-03T22:31:57.211Z,8.10
2019-05-03T22:34:35.036Z,8.20
2019-05-03T22:37:06.892Z,8.20
2019-05-03T22:39:35.288Z,8.30
2019-05-03T22:42:04.506Z,8.30
2019-05-03T22:44:36.421Z,8.30
2019-05-03T22:47:05.563Z,8.20
2019-05-03T22:49:37.631Z,8.30
2019-05-03T22:52:08.371Z,8.30
2019-05-03T22:54:40.369Z,8.40
2019-05-03T22:57:08.776Z,8.40
2019-05-03T22:59:44.891Z,8.30
2019-05-03T23:02:16.725Z,8.30
2019-05-03T23:04:45.122Z,8.20
2019-05-03T23:07:14.857Z,8.20
2019-05-03T23:09:46.844Z,8.20
2019-05-03T23:12:17.990Z,8.20
2019-05-03T23:14:49.049Z,8.20
2019-05-03T23:17:21.117Z,8.10
2019-05-03T23:19:51.195Z,8.10
2019-05-03T23:22:21.376Z,8.00
2019-05-03T23:24:51.439Z,8.00
2019-05-03T23:27:24.905Z,7.90
2019-05-03T23:29:56.284Z,8.00
2019-05-03T23:32:31.440Z,7.90
2019-05-03T23:35:02.050Z,7.90
2019-05-03T23:37:30.662Z,7.90
2019-05-03T23:40:05.911Z,7.70
2019-05-03T23:42:35.972Z,7.60
2019-05-03T23:45:06.245Z,7.50
2019-05-03T23:47:45.239Z,7.40
2019-05-03T23:50:22.541Z,7.40
2019-05-03T23:52:54.483Z,7.40
2019-05-03T23:55:25.352Z,7.40
2019-05-03T23:58:04.835Z,7.40
